sensor_id;sensor_type;location;lat;lon;timestamp;temperature;humidity
15241;DHT22;7723;52.170;9.978;2024-03-23T00:54:40;7.20;99.90
15241;DHT22;7723;52.170;9.978;2024-03-23T00:57:08;7.20;99.90
15241;DHT22;7723;52.170;9.978;2024-03-23T00:59:34;7.10;99.90
15241;DHT22;7723;52.170;9.978;2024-03-23T01:02:01;7.10;99.90
15241;DHT22;7723;52.170;9.978;2024-03-23T01:04:27;7.10;99.90
15241;DHT22;7723;52.170;9.978;2024-03-23T01:06:54;7.10;99.90
15241;DHT22;7723;52.170;9.978;2024-03-23T01:09:20;7.00;99.90
15241;DHT22;7723;52.170;9.978;2024-03-23T01:11:49;7.00;99.90
15241;DHT22;7723;52.170;9.978;2024-03-23T01:14:15;6.90;99.90
15241;DHT22;7723;52.170;9.978;2024-03-23T01:16:42;6.90;99.90
15241;DHT22;7723;52.170;9.978;2024-03-23T01:19:08;6.90;99.90
15241;DHT22;7723;52.170;9.978;2024-03-23T01:21:36;6.90;99.90
15241;DHT22;7723;52.170;9.978;2024-03-23T01:24:02;6.90;99.90
15241;DHT22;7723;52.170;9.978;2024-03-23T01:26:29;6.90;99.90
15241;DHT22;7723;52.170;9.978;2024-03-23T01:28:56;6.90;99.90
15241;DHT22;7723;52.170;9.978;2024-03-23T01:31:23;7.00;99.90
15241;DHT22;7723;52.170;9.978;2024-03-23T01:33:49;6.90;99.90
15241;DHT22;7723;52.170;9.978;2024-03-23T01:36:16;6.90;99.90
15241;DHT22;7723;52.170;9.978;2024-03-23T01:38:44;6.90;99.90
15241;DHT22;7723;52.170;9.978;2024-03-23T01:41:12;6.80;99.90
15241;DHT22;7723;52.170;9.978;2024-03-23T01:43:38;6.80;99.90
15241;DHT22;7723;52.170;9.978;2024-03-23T01:46:06;6.80;99.90
15241;DHT22;7723;52.170;9.978;2024-03-23T01:48:33;6.80;99.90
15241;DHT22;7723;52.170;9.978;2024-03-23T01:51:00;6.80;99.90
15241;DHT22;7723;52.170;9.978;2024-03-23T01:53:26;6.90;99.90
15241;DHT22;7723;52.170;9.978;2024-03-23T01:55:54;6.90;99.90
15241;DHT22;7723;52.170;9.978;2024-03-23T01:58:20;6.90;99.90
15241;DHT22;7723;52.170;9.978;2024-03-23T02:00:47;6.90;99.90
15241;DHT22;7723;52.170;9.978;2024-03-23T02:03:24;6.90;99.90
15241;DHT22;7723;52.170;9.978;2024-03-23T02:05:53;6.80;99.90
15241;DHT22;7723;52.170;9.978;2024-03-23T02:08:21;6.70;99.90
15241;DHT22;7723;52.170;9.978;2024-03-23T02:10:48;6.80;99.90
15241;DHT22;7723;52.170;9.978;2024-03-23T02:13:14;6.70;99.90
15241;DHT22;7723;52.170;9.978;2024-03-23T02:15:42;6.70;99.90
15241;DHT22;7723;52.170;9.978;2024-03-23T02:18:08;6.70;99.90
15241;DHT22;7723;52.170;9.978;2024-03-23T02:20:37;6.70;99.90
15241;DHT22;7723;52.170;9.978;2024-03-23T02:23:06;6.70;99.90
15241;DHT22;7723;52.170;9.978;2024-03-23T02:25:39;6.70;99.90
15241;DHT22;7723;52.170;9.978;2024-03-23T02:28:05;6.80;99.90
15241;DHT22;7723;52.170;9.978;2024-03-23T02:30:32;6.80;99.90
15241;DHT22;7723;52.170;9.978;2024-03-23T02:32:58;6.80;99.90
15241;DHT22;7723;52.170;9.978;2024-03-23T02:35:26;6.80;99.90
15241;DHT22;7723;52.170;9.978;2024-03-23T02:37:52;6.80;99.90
15241;DHT22;7723;52.170;9.978;2024-03-23T02:40:22;6.80;99.90
15241;DHT22;7723;52.170;9.978;2024-03-23T02:42:48;6.80;99.90
15241;DHT22;7723;52.170;9.978;2024-03-23T02:45:15;6.80;99.90
15241;DHT22;7723;52.170;9.978;2024-03-23T02:47:42;6.80;99.90
15241;DHT22;7723;52.170;9.978;2024-03-23T02:50:09;6.80;99.90
15241;DHT22;7723;52.170;9.978;2024-03-23T02:52:35;6.80;99.90
15241;DHT22;7723;52.170;9.978;2024-03-23T02:55:03;6.80;99.90
15241;DHT22;7723;52.170;9.978;2024-03-23T02:57:30;6.80;99.90
15241;DHT22;7723;52.170;9.978;2024-03-23T02:59:57;6.80;99.90
15241;DHT22;7723;52.170;9.978;2024-03-23T03:02:23;6.90;99.90
15241;DHT22;7723;52.170;9.978;2024-03-23T03:04:50;6.90;99.90
15241;DHT22;7723;52.170;9.978;2024-03-23T03:07:16;7.00;99.90
15241;DHT22;7723;52.170;9.978;2024-03-23T03:09:44;7.10;99.90
15241;DHT22;7723;52.170;9.978;2024-03-23T03:12:10;7.00;99.90
15241;DHT22;7723;52.170;9.978;2024-03-23T03:14:38;6.90;99.90
15241;DHT22;7723;52.170;9.978;2024-03-23T03:17:04;6.90;99.90
15241;DHT22;7723;52.170;9.978;2024-03-23T03:19:32;6.90;99.90
15241;DHT22;7723;52.170;9.978;2024-03-23T03:21:58;6.80;99.90
15241;DHT22;7723;52.170;9.978;2024-03-23T03:24:25;6.80;99.90
15241;DHT22;7723;52.170;9.978;2024-03-23T03:26:51;6.90;99.90
15241;DHT22;7723;52.170;9.978;2024-03-23T03:29:18;6.90;99.90
15241;DHT22;7723;52.170;9.978;2024-03-23T03:31:46;6.90;99.90
15241;DHT22;7723;52.170;9.978;2024-03-23T03:34:15;6.90;99.90
15241;DHT22;7723;52.170;9.978;2024-03-23T03:36:41;6.90;99.90
15241;DHT22;7723;52.170;9.978;2024-03-23T03:39:08;6.90;99.90
15241;DHT22;7723;52.170;9.978;2024-03-23T03:41:35;6.90;99.90
15241;DHT22;7723;52.170;9.978;2024-03-23T03:44:02;6.90;99.90
15241;DHT22;7723;52.170;9.978;2024-03-23T03:46:28;7.00;99.90
15241;DHT22;7723;52.170;9.978;2024-03-23T03:48:57;6.90;99.90
15241;DHT22;7723;52.170;9.978;2024-03-23T03:51:23;6.90;99.90
15241;DHT22;7723;52.170;9.978;2024-03-23T03:53:50;6.90;99.90
15241;DHT22;7723;52.170;9.978;2024-03-23T03:56:16;6.90;99.90
15241;DHT22;7723;52.170;9.978;2024-03-23T03:58:43;6.90;99.90
15241;DHT22;7723;52.170;9.978;2024-03-23T04:01:09;6.80;99.90
15241;DHT22;7723;52.170;9.978;2024-03-23T04:03:37;6.80;99.90
15241;DHT22;7723;52.170;9.978;2024-03-23T04:06:06;6.80;99.90
15241;DHT22;7723;52.170;9.978;2024-03-23T04:08:33;6.80;99.90
15241;DHT22;7723;52.170;9.978;2024-03-23T04:10:59;6.80;99.90
15241;DHT22;7723;52.170;9.978;2024-03-23T04:13:27;6.70;99.90
15241;DHT22;7723;52.170;9.978;2024-03-23T04:15:54;6.70;99.90
15241;DHT22;7723;52.170;9.978;2024-03-23T04:18:21;6.70;99.90
15241;DHT22;7723;52.170;9.978;2024-03-23T04:20:48;6.70;99.90
15241;DHT22;7723;52.170;9.978;2024-03-23T04:23:16;6.60;99.90
15241;DHT22;7723;52.170;9.978;2024-03-23T04:25:43;6.60;99.90
15241;DHT22;7723;52.170;9.978;2024-03-23T04:28:10;6.60;99.90
15241;DHT22;7723;52.170;9.978;2024-03-23T04:30:36;6.60;99.90
15241;DHT22;7723;52.170;9.978;2024-03-23T04:33:03;6.60;99.90
15241;DHT22;7723;52.170;9.978;2024-03-23T04:35:30;6.40;99.90
15241;DHT22;7723;52.170;9.978;2024-03-23T04:37:57;6.40;99.90
15241;DHT22;7723;52.170;9.978;2024-03-23T04:40:27;6.30;99.90
15241;DHT22;7723;52.170;9.978;2024-03-23T04:42:54;6.30;99.90
15241;DHT22;7723;52.170;9.978;2024-03-23T04:45:21;6.30;99.90
15241;DHT22;7723;52.170;9.978;2024-03-23T04:47:48;6.30;99.90
15241;DHT22;7723;52.170;9.978;2024-03-23T04:50:15;6.20;99.90
15241;DHT22;7723;52.170;9.978;2024-03-23T04:52:42;6.20;99.90
15241;DHT22;7723;52.170;9.978;2024-03-23T04:55:09;6.20;99.90
15241;DHT22;7723;52.170;9.978;2024-03-23T04:57:38;6.30;99.90
15241;DHT22;7723;52.170;9.978;2024-03-23T05:00:06;6.20;99.90
15241;DHT22;7723;52.170;9.978;2024-03-23T05:02:43;6.20;99.90
15241;DHT22;7723;52.170;9.978;2024-03-23T05:05:10;6.20;99.90
15241;DHT22;7723;52.170;9.978;2024-03-23T05:07:36;6.10;99.90
15241;DHT22;7723;52.170;9.978;2024-03-23T05:10:04;6.20;99.90
15241;DHT22;7723;52.170;9.978;2024-03-23T05:12:30;6.10;99.90
15241;DHT22;7723;52.170;9.978;2024-03-23T05:14:59;6.20;99.90
15241;DHT22;7723;52.170;9.978;2024-03-23T05:17:25;6.10;99.90
15241;DHT22;7723;52.170;9.978;2024-03-23T05:19:52;6.20;99.90
15241;DHT22;7723;52.170;9.978;2024-03-23T05:22:18;6.20;99.90
15241;DHT22;7723;52.170;9.978;2024-03-23T05:24:45;6.10;99.90
15241;DHT22;7723;52.170;9.978;2024-03-23T05:27:12;6.10;99.90
15241;DHT22;7723;52.170;9.978;2024-03-23T05:29:39;6.00;99.90
15241;DHT22;7723;52.170;9.978;2024-03-23T05:32:07;6.00;99.90
15241;DHT22;7723;52.170;9.978;2024-03-23T05:34:34;6.00;99.90
15241;DHT22;7723;52.170;9.978;2024-03-23T05:37:00;6.00;99.90
15241;DHT22;7723;52.170;9.978;2024-03-23T05:39:27;6.00;99.90
15241;DHT22;7723;52.170;9.978;2024-03-23T05:41:53;6.00;99.90
15241;DHT22;7723;52.170;9.978;2024-03-23T05:44:20;6.00;99.90
15241;DHT22;7723;52.170;9.978;2024-03-23T05:46:47;6.10;99.90
15241;DHT22;7723;52.170;9.978;2024-03-23T05:49:16;6.10;99.90
15241;DHT22;7723;52.170;9.978;2024-03-23T05:51:43;6.10;99.90
15241;DHT22;7723;52.170;9.978;2024-03-23T05:54:10;6.10;99.90
15241;DHT22;7723;52.170;9.978;2024-03-23T05:56:37;6.10;99.90
15241;DHT22;7723;52.170;9.978;2024-03-23T05:59:04;6.00;99.90
15241;DHT22;7723;52.170;9.978;2024-03-23T06:01:31;6.10;99.90
15241;DHT22;7723;52.170;9.978;2024-03-23T06:03:58;6.00;99.90
15241;DHT22;7723;52.170;9.978;2024-03-23T06:06:28;6.00;99.90
15241;DHT22;7723;52.170;9.978;2024-03-23T06:08:55;5.90;99.90
15241;DHT22;7723;52.170;9.978;2024-03-23T06:11:23;5.90;99.90
15241;DHT22;7723;52.170;9.978;2024-03-23T06:13:49;5.60;99.90
15241;DHT22;7723;52.170;9.978;2024-03-23T06:16:16;5.50;99.90
15241;DHT22;7723;52.170;9.978;2024-03-23T06:18:42;5.40;99.90
15241;DHT22;7723;52.170;9.978;2024-03-23T06:21:13;5.40;99.90
15241;DHT22;7723;52.170;9.978;2024-03-23T06:23:42;5.30;99.90
15241;DHT22;7723;52.170;9.978;2024-03-23T06:26:13;5.30;99.90
15241;DHT22;7723;52.170;9.978;2024-03-23T06:28:40;5.40;99.90
15241;DHT22;7723;52.170;9.978;2024-03-23T06:31:09;5.40;99.90
15241;DHT22;7723;52.170;9.978;2024-03-23T06:33:35;5.40;99.90
15241;DHT22;7723;52.170;9.978;2024-03-23T06:36:03;5.40;99.90
15241;DHT22;7723;52.170;9.978;2024-03-23T06:38:29;5.40;99.90
15241;DHT22;7723;52.170;9.978;2024-03-23T06:40:57;5.50;99.90
15241;DHT22;7723;52.170;9.978;2024-03-23T06:43:23;5.50;99.90
15241;DHT22;7723;52.170;9.978;2024-03-23T06:45:52;5.70;99.90
15241;DHT22;7723;52.170;9.978;2024-03-23T06:48:19;5.50;99.90
15241;DHT22;7723;52.170;9.978;2024-03-23T06:50:46;5.60;99.90
15241;DHT22;7723;52.170;9.978;2024-03-23T06:53:12;5.60;99.90
15241;DHT22;7723;52.170;9.978;2024-03-23T06:55:39;5.70;99.90
15241;DHT22;7723;52.170;9.978;2024-03-23T06:58:07;5.70;99.90
15241;DHT22;7723;52.170;9.978;2024-03-23T07:00:35;5.80;99.90
15241;DHT22;7723;52.170;9.978;2024-03-23T07:03:01;5.80;99.90
15241;DHT22;7723;52.170;9.978;2024-03-23T07:05:29;5.80;99.90
15241;DHT22;7723;52.170;9.978;2024-03-23T07:07:55;5.80;99.90
15241;DHT22;7723;52.170;9.978;2024-03-23T07:10:23;5.80;99.90
15241;DHT22;7723;52.170;9.978;2024-03-23T07:12:49;5.80;99.90
15241;DHT22;7723;52.170;9.978;2024-03-23T07:15:17;5.80;99.90
15241;DHT22;7723;52.170;9.978;2024-03-23T07:17:46;5.80;99.90
15241;DHT22;7723;52.170;9.978;2024-03-23T07:20:14;5.90;99.90
15241;DHT22;7723;52.170;9.978;2024-03-23T07:22:40;5.90;99.90
15241;DHT22;7723;52.170;9.978;2024-03-23T07:25:07;5.90;99.90
15241;DHT22;7723;52.170;9.978;2024-03-23T07:27:33;5.90;99.90
15241;DHT22;7723;52.170;9.978;2024-03-23T07:30:01;5.90;99.90
15241;DHT22;7723;52.170;9.978;2024-03-23T07:32:28;5.90;99.90
15241;DHT22;7723;52.170;9.978;2024-03-23T07:34:55;5.90;99.90
15241;DHT22;7723;52.170;9.978;2024-03-23T07:37:21;5.90;99.90
15241;DHT22;7723;52.170;9.978;2024-03-23T07:39:48;6.00;99.90
15241;DHT22;7723;52.170;9.978;2024-03-23T07:42:14;6.00;99.90
15241;DHT22;7723;52.170;9.978;2024-03-23T07:44:41;5.90;99.90
15241;DHT22;7723;52.170;9.978;2024-03-23T07:47:07;6.00;99.90
15241;DHT22;7723;52.170;9.978;2024-03-23T07:49:36;6.00;99.90
15241;DHT22;7723;52.170;9.978;2024-03-23T07:52:02;6.00;99.90
15241;DHT22;7723;52.170;9.978;2024-03-23T07:54:29;6.00;99.90
15241;DHT22;7723;52.170;9.978;2024-03-23T07:56:55;6.10;99.90
15241;DHT22;7723;52.170;9.978;2024-03-23T07:59:22;6.10;99.90
15241;DHT22;7723;52.170;9.978;2024-03-23T08:01:48;6.10;99.90
15241;DHT22;7723;52.170;9.978;2024-03-23T08:04:16;6.10;99.90
15241;DHT22;7723;52.170;9.978;2024-03-23T08:06:43;6.10;99.90
15241;DHT22;7723;52.170;9.978;2024-03-23T08:09:10;6.20;99.90
15241;DHT22;7723;52.170;9.978;2024-03-23T08:11:36;6.20;99.90
15241;DHT22;7723;52.170;9.978;2024-03-23T08:14:05;6.20;99.90
15241;DHT22;7723;52.170;9.978;2024-03-23T08:16:31;6.30;99.90
15241;DHT22;7723;52.170;9.978;2024-03-23T08:18:59;6.30;99.90
15241;DHT22;7723;52.170;9.978;2024-03-23T08:21:25;6.30;99.90
15241;DHT22;7723;52.170;9.978;2024-03-23T08:23:54;6.40;99.90
15241;DHT22;7723;52.170;9.978;2024-03-23T08:26:20;6.30;99.90
15241;DHT22;7723;52.170;9.978;2024-03-23T08:28:47;6.10;99.90
15241;DHT22;7723;52.170;9.978;2024-03-23T08:31:14;6.20;99.90
15241;DHT22;7723;52.170;9.978;2024-03-23T08:33:41;6.20;99.90
15241;DHT22;7723;52.170;9.978;2024-03-23T08:36:09;6.20;99.90
15241;DHT22;7723;52.170;9.978;2024-03-23T08:38:38;6.30;99.90
15241;DHT22;7723;52.170;9.978;2024-03-23T08:41:06;6.30;99.90
15241;DHT22;7723;52.170;9.978;2024-03-23T08:43:36;6.40;99.90
15241;DHT22;7723;52.170;9.978;2024-03-23T08:46:05;6.50;99.90
15241;DHT22;7723;52.170;9.978;2024-03-23T08:48:34;6.60;99.90
15241;DHT22;7723;52.170;9.978;2024-03-23T08:51:05;6.70;99.90
15241;DHT22;7723;52.170;9.978;2024-03-23T08:53:33;6.80;99.90
15241;DHT22;7723;52.170;9.978;2024-03-23T08:56:00;6.90;99.90
15241;DHT22;7723;52.170;9.978;2024-03-23T08:58:30;7.00;99.90
15241;DHT22;7723;52.170;9.978;2024-03-23T09:01:02;7.10;99.90
15241;DHT22;7723;52.170;9.978;2024-03-23T09:03:29;7.20;99.90
15241;DHT22;7723;52.170;9.978;2024-03-23T09:05:56;7.30;99.90
15241;DHT22;7723;52.170;9.978;2024-03-23T09:08:24;7.40;99.90
15241;DHT22;7723;52.170;9.978;2024-03-23T09:10:50;7.70;99.90
15241;DHT22;7723;52.170;9.978;2024-03-23T09:13:17;8.00;99.90
15241;DHT22;7723;52.170;9.978;2024-03-23T09:15:48;8.20;99.90
15241;DHT22;7723;52.170;9.978;2024-03-23T09:18:16;8.20;99.90
15241;DHT22;7723;52.170;9.978;2024-03-23T09:20:43;8.40;99.90
15241;DHT22;7723;52.170;9.978;2024-03-23T09:23:10;8.40;99.90
15241;DHT22;7723;52.170;9.978;2024-03-23T09:25:36;8.40;99.90
15241;DHT22;7723;52.170;9.978;2024-03-23T09:28:05;8.60;99.90
15241;DHT22;7723;52.170;9.978;2024-03-23T09:30:32;8.50;99.90
15241;DHT22;7723;52.170;9.978;2024-03-23T09:33:02;8.00;99.90
15241;DHT22;7723;52.170;9.978;2024-03-23T09:35:28;7.60;99.90
15241;DHT22;7723;52.170;9.978;2024-03-23T09:37:55;7.40;99.90
15241;DHT22;7723;52.170;9.978;2024-03-23T09:40:23;7.30;99.90
15241;DHT22;7723;52.170;9.978;2024-03-23T09:42:50;7.30;99.90
15241;DHT22;7723;52.170;9.978;2024-03-23T09:45:19;7.30;99.90
15241;DHT22;7723;52.170;9.978;2024-03-23T09:47:48;7.40;99.90
15241;DHT22;7723;52.170;9.978;2024-03-23T09:50:17;7.60;99.90
15241;DHT22;7723;52.170;9.978;2024-03-23T09:52:46;7.70;99.90
15241;DHT22;7723;52.170;9.978;2024-03-23T09:55:12;8.50;99.90
15241;DHT22;7723;52.170;9.978;2024-03-23T09:57:40;9.40;99.90
15241;DHT22;7723;52.170;9.978;2024-03-23T10:00:07;9.60;99.90
15241;DHT22;7723;52.170;9.978;2024-03-23T10:02:35;9.40;99.90
15241;DHT22;7723;52.170;9.978;2024-03-23T10:05:01;9.10;99.90
15241;DHT22;7723;52.170;9.978;2024-03-23T10:07:30;9.00;99.90
15241;DHT22;7723;52.170;9.978;2024-03-23T10:09:56;8.30;99.90
15241;DHT22;7723;52.170;9.978;2024-03-23T10:12:24;7.50;99.90
15241;DHT22;7723;52.170;9.978;2024-03-23T10:14:50;7.10;99.90
15241;DHT22;7723;52.170;9.978;2024-03-23T10:17:18;6.90;99.90
15241;DHT22;7723;52.170;9.978;2024-03-23T10:19:44;6.90;99.90
15241;DHT22;7723;52.170;9.978;2024-03-23T10:22:14;7.20;99.90
15241;DHT22;7723;52.170;9.978;2024-03-23T10:24:42;7.80;99.90
15241;DHT22;7723;52.170;9.978;2024-03-23T10:27:09;8.40;99.90
15241;DHT22;7723;52.170;9.978;2024-03-23T10:29:35;8.60;99.90
15241;DHT22;7723;52.170;9.978;2024-03-23T10:32:09;9.30;99.90
15241;DHT22;7723;52.170;9.978;2024-03-23T10:34:36;9.20;99.90
15241;DHT22;7723;52.170;9.978;2024-03-23T10:37:03;8.80;99.90
15241;DHT22;7723;52.170;9.978;2024-03-23T10:39:32;9.00;99.90
15241;DHT22;7723;52.170;9.978;2024-03-23T10:42:02;9.00;99.90
15241;DHT22;7723;52.170;9.978;2024-03-23T10:44:29;9.20;99.90
15241;DHT22;7723;52.170;9.978;2024-03-23T10:46:58;9.50;99.90
15241;DHT22;7723;52.170;9.978;2024-03-23T10:49:28;9.40;99.90
15241;DHT22;7723;52.170;9.978;2024-03-23T10:52:00;9.50;99.90
15241;DHT22;7723;52.170;9.978;2024-03-23T10:54:27;9.50;99.90
15241;DHT22;7723;52.170;9.978;2024-03-23T10:56:59;9.80;99.90
15241;DHT22;7723;52.170;9.978;2024-03-23T10:59:29;10.00;99.90
15241;DHT22;7723;52.170;9.978;2024-03-23T11:01:58;10.00;99.90
15241;DHT22;7723;52.170;9.978;2024-03-23T11:04:32;10.10;99.90
15241;DHT22;7723;52.170;9.978;2024-03-23T11:07:00;10.20;99.90
15241;DHT22;7723;52.170;9.978;2024-03-23T11:09:39;9.40;99.90
15241;DHT22;7723;52.170;9.978;2024-03-23T11:12:25;8.90;1.00
15241;DHT22;7723;52.170;9.978;2024-03-23T11:14:54;8.60;1.00
15241;DHT22;7723;52.170;9.978;2024-03-23T11:17:23;8.70;1.00
15241;DHT22;7723;52.170;9.978;2024-03-23T11:19:57;8.80;1.00
15241;DHT22;7723;52.170;9.978;2024-03-23T11:22:43;9.00;1.00
15241;DHT22;7723;52.170;9.978;2024-03-23T11:25:14;9.40;1.00
15241;DHT22;7723;52.170;9.978;2024-03-23T11:27:42;9.70;1.00
15241;DHT22;7723;52.170;9.978;2024-03-23T11:30:15;9.70;1.00
15241;DHT22;7723;52.170;9.978;2024-03-23T11:32:43;9.70;1.00
15241;DHT22;7723;52.170;9.978;2024-03-23T11:35:09;9.60;1.00
15241;DHT22;7723;52.170;9.978;2024-03-23T11:37:37;9.50;1.00
15241;DHT22;7723;52.170;9.978;2024-03-23T11:40:20;9.20;1.00
15241;DHT22;7723;52.170;9.978;2024-03-23T11:42:47;9.00;1.00
15241;DHT22;7723;52.170;9.978;2024-03-23T11:45:14;8.80;1.00
15241;DHT22;7723;52.170;9.978;2024-03-23T11:47:45;8.80;1.00
15241;DHT22;7723;52.170;9.978;2024-03-23T11:50:19;9.10;99.90
15241;DHT22;7723;52.170;9.978;2024-03-23T11:52:46;9.20;1.00
15241;DHT22;7723;52.170;9.978;2024-03-23T11:55:12;8.90;1.00
15241;DHT22;7723;52.170;9.978;2024-03-23T11:57:40;9.00;1.00
15241;DHT22;7723;52.170;9.978;2024-03-23T12:03:01;8.90;1.00
15241;DHT22;7723;52.170;9.978;2024-03-23T12:05:29;8.30;1.00
15241;DHT22;7723;52.170;9.978;2024-03-23T12:07:55;8.40;1.00
15241;DHT22;7723;52.170;9.978;2024-03-23T12:10:22;8.60;1.00
15241;DHT22;7723;52.170;9.978;2024-03-23T12:13:00;9.00;1.00
15241;DHT22;7723;52.170;9.978;2024-03-23T12:15:27;9.20;1.00
15241;DHT22;7723;52.170;9.978;2024-03-23T12:18:07;9.30;1.00
15241;DHT22;7723;52.170;9.978;2024-03-23T12:20:36;9.50;1.00
15241;DHT22;7723;52.170;9.978;2024-03-23T12:23:07;9.70;1.00
15241;DHT22;7723;52.170;9.978;2024-03-23T12:25:35;9.90;99.90
15241;DHT22;7723;52.170;9.978;2024-03-23T12:28:02;9.10;1.00
15241;DHT22;7723;52.170;9.978;2024-03-23T12:30:32;7.30;99.90
15241;DHT22;7723;52.170;9.978;2024-03-23T12:32:58;6.20;1.00
15241;DHT22;7723;52.170;9.978;2024-03-23T12:35:26;5.90;1.00
15241;DHT22;7723;52.170;9.978;2024-03-23T12:37:52;5.90;1.00
15241;DHT22;7723;52.170;9.978;2024-03-23T12:40:19;5.90;1.00
15241;DHT22;7723;52.170;9.978;2024-03-23T12:42:45;6.20;99.90
15241;DHT22;7723;52.170;9.978;2024-03-23T12:45:13;6.50;99.90
15241;DHT22;7723;52.170;9.978;2024-03-23T12:47:39;6.70;99.90
15241;DHT22;7723;52.170;9.978;2024-03-23T12:50:07;7.00;99.90
15241;DHT22;7723;52.170;9.978;2024-03-23T12:52:35;7.10;1.00
15241;DHT22;7723;52.170;9.978;2024-03-23T12:55:02;7.00;99.90
15241;DHT22;7723;52.170;9.978;2024-03-23T12:57:29;7.00;1.00
15241;DHT22;7723;52.170;9.978;2024-03-23T12:59:56;7.00;1.00
15241;DHT22;7723;52.170;9.978;2024-03-23T13:02:23;7.00;1.00
15241;DHT22;7723;52.170;9.978;2024-03-23T13:04:51;7.00;1.00
15241;DHT22;7723;52.170;9.978;2024-03-23T13:07:17;6.60;99.90
15241;DHT22;7723;52.170;9.978;2024-03-23T13:09:46;6.00;75.80
15241;DHT22;7723;52.170;9.978;2024-03-23T13:12:12;5.40;93.40
15241;DHT22;7723;52.170;9.978;2024-03-23T13:14:40;5.10;99.90
15241;DHT22;7723;52.170;9.978;2024-03-23T13:17:06;5.00;99.90
15241;DHT22;7723;52.170;9.978;2024-03-23T13:19:34;5.10;99.90
15241;DHT22;7723;52.170;9.978;2024-03-23T13:22:00;5.30;99.90
15241;DHT22;7723;52.170;9.978;2024-03-23T13:24:29;5.50;99.90
15241;DHT22;7723;52.170;9.978;2024-03-23T13:26:57;5.80;99.90
15241;DHT22;7723;52.170;9.978;2024-03-23T13:29:24;6.30;99.90
15241;DHT22;7723;52.170;9.978;2024-03-23T13:31:52;6.80;99.90
15241;DHT22;7723;52.170;9.978;2024-03-23T13:34:19;7.20;99.90
15241;DHT22;7723;52.170;9.978;2024-03-23T13:36:46;7.50;99.90
15241;DHT22;7723;52.170;9.978;2024-03-23T13:39:14;7.40;99.90
15241;DHT22;7723;52.170;9.978;2024-03-23T13:41:41;7.40;1.00
15241;DHT22;7723;52.170;9.978;2024-03-23T13:44:11;7.20;1.00
15241;DHT22;7723;52.170;9.978;2024-03-23T13:46:37;7.00;1.00
15241;DHT22;7723;52.170;9.978;2024-03-23T13:49:05;6.90;1.00
15241;DHT22;7723;52.170;9.978;2024-03-23T13:51:31;7.00;1.00
15241;DHT22;7723;52.170;9.978;2024-03-23T13:53:59;7.20;1.00
15241;DHT22;7723;52.170;9.978;2024-03-23T13:56:26;7.50;1.00
15241;DHT22;7723;52.170;9.978;2024-03-23T13:58:55;7.90;1.00
15241;DHT22;7723;52.170;9.978;2024-03-23T14:01:22;8.00;99.90
15241;DHT22;7723;52.170;9.978;2024-03-23T14:03:50;7.80;99.90
15241;DHT22;7723;52.170;9.978;2024-03-23T14:06:16;7.70;99.90
15241;DHT22;7723;52.170;9.978;2024-03-23T14:08:43;7.60;90.50
15241;DHT22;7723;52.170;9.978;2024-03-23T14:11:09;7.40;1.00
15241;DHT22;7723;52.170;9.978;2024-03-23T14:13:37;7.20;1.00
15241;DHT22;7723;52.170;9.978;2024-03-23T14:16:03;7.20;99.90
15241;DHT22;7723;52.170;9.978;2024-03-23T14:18:32;7.30;99.90
15241;DHT22;7723;52.170;9.978;2024-03-23T14:20:59;7.30;1.00
15241;DHT22;7723;52.170;9.978;2024-03-23T14:23:27;7.20;1.00
15241;DHT22;7723;52.170;9.978;2024-03-23T14:25:55;7.20;99.90
15241;DHT22;7723;52.170;9.978;2024-03-23T14:28:22;6.80;1.00
15241;DHT22;7723;52.170;9.978;2024-03-23T14:30:48;6.40;1.00
15241;DHT22;7723;52.170;9.978;2024-03-23T14:33:16;6.20;1.00
15241;DHT22;7723;52.170;9.978;2024-03-23T14:35:51;6.10;1.00
15241;DHT22;7723;52.170;9.978;2024-03-23T14:38:19;6.20;1.00
15241;DHT22;7723;52.170;9.978;2024-03-23T14:40:46;6.20;1.00
15241;DHT22;7723;52.170;9.978;2024-03-23T14:43:13;6.30;99.90
15241;DHT22;7723;52.170;9.978;2024-03-23T14:48:31;5.70;99.90
15241;DHT22;7723;52.170;9.978;2024-03-23T14:50:59;5.60;99.90
15241;DHT22;7723;52.170;9.978;2024-03-23T14:53:27;5.40;99.90
15241;DHT22;7723;52.170;9.978;2024-03-23T14:55:55;5.30;99.90
15241;DHT22;7723;52.170;9.978;2024-03-23T14:58:22;5.40;99.90
15241;DHT22;7723;52.170;9.978;2024-03-23T15:00:50;5.50;99.90
15241;DHT22;7723;52.170;9.978;2024-03-23T15:03:17;5.50;99.90
15241;DHT22;7723;52.170;9.978;2024-03-23T15:05:52;5.50;99.90
15241;DHT22;7723;52.170;9.978;2024-03-23T15:08:21;5.60;99.90
15241;DHT22;7723;52.170;9.978;2024-03-23T15:10:47;5.60;99.90
15241;DHT22;7723;52.170;9.978;2024-03-23T15:13:14;5.80;99.90
15241;DHT22;7723;52.170;9.978;2024-03-23T15:15:42;5.90;99.90
15241;DHT22;7723;52.170;9.978;2024-03-23T15:18:09;6.00;1.00
15241;DHT22;7723;52.170;9.978;2024-03-23T15:20:38;6.00;1.00
15241;DHT22;7723;52.170;9.978;2024-03-23T15:23:04;6.00;1.00
15241;DHT22;7723;52.170;9.978;2024-03-23T15:25:33;5.90;1.00
15241;DHT22;7723;52.170;9.978;2024-03-23T15:27:59;5.90;1.00
15241;DHT22;7723;52.170;9.978;2024-03-23T15:30:26;5.90;28.30
15241;DHT22;7723;52.170;9.978;2024-03-23T15:32:52;6.00;23.40
15241;DHT22;7723;52.170;9.978;2024-03-23T15:35:19;6.20;46.10
15241;DHT22;7723;52.170;9.978;2024-03-23T15:37:48;6.20;1.00
15241;DHT22;7723;52.170;9.978;2024-03-23T15:40:15;6.10;1.00
15241;DHT22;7723;52.170;9.978;2024-03-23T15:42:43;6.10;1.00
15241;DHT22;7723;52.170;9.978;2024-03-23T15:45:10;6.10;1.00
15241;DHT22;7723;52.170;9.978;2024-03-23T15:47:36;6.00;1.00
15241;DHT22;7723;52.170;9.978;2024-03-23T15:50:03;6.00;1.00
15241;DHT22;7723;52.170;9.978;2024-03-23T15:52:34;6.10;1.00
15241;DHT22;7723;52.170;9.978;2024-03-23T15:55:02;6.10;1.00
15241;DHT22;7723;52.170;9.978;2024-03-23T15:57:32;6.00;1.00
15241;DHT22;7723;52.170;9.978;2024-03-23T16:00:00;5.90;1.00
15241;DHT22;7723;52.170;9.978;2024-03-23T16:02:26;5.80;1.00
15241;DHT22;7723;52.170;9.978;2024-03-23T16:04:54;5.80;1.00
15241;DHT22;7723;52.170;9.978;2024-03-23T16:07:21;5.80;1.00
15241;DHT22;7723;52.170;9.978;2024-03-23T16:09:48;5.70;1.00
15241;DHT22;7723;52.170;9.978;2024-03-23T16:12:14;5.70;1.00
15241;DHT22;7723;52.170;9.978;2024-03-23T16:14:42;5.70;1.00
15241;DHT22;7723;52.170;9.978;2024-03-23T16:17:09;5.70;1.00
15241;DHT22;7723;52.170;9.978;2024-03-23T16:19:36;5.50;1.00
15241;DHT22;7723;52.170;9.978;2024-03-23T16:22:02;5.40;1.00
15241;DHT22;7723;52.170;9.978;2024-03-23T16:24:29;5.30;1.00
15241;DHT22;7723;52.170;9.978;2024-03-23T16:26:55;5.30;1.00
15241;DHT22;7723;52.170;9.978;2024-03-23T16:29:23;5.30;1.00
15241;DHT22;7723;52.170;9.978;2024-03-23T16:31:49;5.30;1.00
15241;DHT22;7723;52.170;9.978;2024-03-23T16:34:18;5.30;1.00
15241;DHT22;7723;52.170;9.978;2024-03-23T16:36:44;5.40;1.00
15241;DHT22;7723;52.170;9.978;2024-03-23T16:39:11;5.60;1.00
15241;DHT22;7723;52.170;9.978;2024-03-23T16:41:37;5.70;1.00
15241;DHT22;7723;52.170;9.978;2024-03-23T16:44:04;5.90;99.90
15241;DHT22;7723;52.170;9.978;2024-03-23T16:46:30;6.00;17.10
15241;DHT22;7723;52.170;9.978;2024-03-23T16:48:57;6.00;1.00
15241;DHT22;7723;52.170;9.978;2024-03-23T16:51:25;6.00;99.90
15241;DHT22;7723;52.170;9.978;2024-03-23T16:53:52;5.90;99.90
15241;DHT22;7723;52.170;9.978;2024-03-23T16:56:21;5.80;1.00
15241;DHT22;7723;52.170;9.978;2024-03-23T16:58:48;5.60;1.00
15241;DHT22;7723;52.170;9.978;2024-03-23T17:01:14;5.50;5.00
15241;DHT22;7723;52.170;9.978;2024-03-23T17:03:46;5.40;99.90
15241;DHT22;7723;52.170;9.978;2024-03-23T17:06:13;5.30;99.90